sensor_id;sensor_type;location;lat;lon;timestamp;pressure;altitude;pressure_sealevel;temperature;humidity
10700;BME280;5401;41.986;21.452;2023-02-16T00:00:15;99855.16;;;4.15;55.73
10700;BME280;5401;41.986;21.452;2023-02-16T00:02:43;99839.81;;;4.19;55.82
10700;BME280;5401;41.986;21.452;2023-02-16T00:05:22;99830.03;;;4.10;54.96
10700;BME280;5401;41.986;21.452;2023-02-16T00:07:50;99856.00;;;4.25;54.82
10700;BME280;5401;41.986;21.452;2023-02-16T00:10:17;99825.72;;;4.09;54.83
10700;BME280;5401;41.986;21.452;2023-02-16T00:12:47;99857.69;;;4.35;55.49
10700;BME280;5401;41.986;21.452;2023-02-16T00:15:31;99853.94;;;4.28;55.36
10700;BME280;5401;41.986;21.452;2023-02-16T00:18:00;99825.13;;;4.05;55.41
10700;BME280;5401;41.986;21.452;2023-02-16T00:20:31;99858.25;;;4.29;55.29
10700;BME280;5401;41.986;21.452;2023-02-16T00:22:59;99835.19;;;4.11;55.06
10700;BME280;5401;41.986;21.452;2023-02-16T00:25:27;99842.44;;;4.09;55.08
10700;BME280;5401;41.986;21.452;2023-02-16T00:27:56;99858.09;;;4.22;55.64
10700;BME280;5401;41.986;21.452;2023-02-16T00:30:24;99858.50;;;4.17;55.53
10700;BME280;5401;41.986;21.452;2023-02-16T00:32:52;99842.19;;;4.12;55.81
10700;BME280;5401;41.986;21.452;2023-02-16T00:35:21;99840.34;;;4.03;55.10
10700;BME280;5401;41.986;21.452;2023-02-16T00:37:49;99853.56;;;3.94;55.96
10700;BME280;5401;41.986;21.452;2023-02-16T00:40:17;99844.59;;;3.86;56.13
10700;BME280;5401;41.986;21.452;2023-02-16T00:42:46;99824.78;;;3.71;56.42
10700;BME280;5401;41.986;21.452;2023-02-16T00:45:18;99834.28;;;3.83;56.23
10700;BME280;5401;41.986;21.452;2023-02-16T00:47:47;99835.94;;;3.84;55.65
10700;BME280;5401;41.986;21.452;2023-02-16T00:50:25;99826.75;;;3.78;56.60
10700;BME280;5401;41.986;21.452;2023-02-16T00:52:53;99835.16;;;3.92;56.49
10700;BME280;5401;41.986;21.452;2023-02-16T00:55:26;99839.75;;;4.00;56.28
10700;BME280;5401;41.986;21.452;2023-02-16T00:57:57;99835.28;;;3.91;56.32
10700;BME280;5401;41.986;21.452;2023-02-16T01:00:33;99832.31;;;3.75;55.88
10700;BME280;5401;41.986;21.452;2023-02-16T01:03:05;99819.59;;;3.60;56.62
10700;BME280;5401;41.986;21.452;2023-02-16T01:05:33;99829.06;;;3.62;56.69
10700;BME280;5401;41.986;21.452;2023-02-16T01:08:01;99819.81;;;3.48;56.31
10700;BME280;5401;41.986;21.452;2023-02-16T01:10:52;99833.31;;;3.45;56.26
10700;BME280;5401;41.986;21.452;2023-02-16T01:13:40;99825.78;;;3.40;56.93
10700;BME280;5401;41.986;21.452;2023-02-16T01:16:14;99814.19;;;3.32;56.71
10700;BME280;5401;41.986;21.452;2023-02-16T01:18:43;99824.88;;;3.30;56.59
10700;BME280;5401;41.986;21.452;2023-02-16T01:21:11;99813.59;;;3.28;56.99
10700;BME280;5401;41.986;21.452;2023-02-16T01:23:39;99821.84;;;3.35;56.81
10700;BME280;5401;41.986;21.452;2023-02-16T01:26:12;99810.00;;;3.29;57.37
10700;BME280;5401;41.986;21.452;2023-02-16T01:28:41;99821.59;;;3.38;56.49
10700;BME280;5401;41.986;21.452;2023-02-16T01:31:09;99804.00;;;3.37;56.98
10700;BME280;5401;41.986;21.452;2023-02-16T01:33:38;99809.59;;;3.34;56.54
10700;BME280;5401;41.986;21.452;2023-02-16T01:36:18;99814.13;;;3.22;56.54
10700;BME280;5401;41.986;21.452;2023-02-16T01:38:49;99811.63;;;3.01;57.46
10700;BME280;5401;41.986;21.452;2023-02-16T01:41:23;99819.56;;;2.81;57.01
10700;BME280;5401;41.986;21.452;2023-02-16T01:43:57;99791.38;;;2.50;57.15
10700;BME280;5401;41.986;21.452;2023-02-16T01:46:33;99807.56;;;2.56;57.83
10700;BME280;5401;41.986;21.452;2023-02-16T01:49:04;99815.34;;;2.69;58.09
10700;BME280;5401;41.986;21.452;2023-02-16T01:51:34;99822.38;;;2.79;58.16
10700;BME280;5401;41.986;21.452;2023-02-16T01:54:10;99814.03;;;2.83;57.56
10700;BME280;5401;41.986;21.452;2023-02-16T01:56:42;99803.38;;;2.74;57.30
10700;BME280;5401;41.986;21.452;2023-02-16T01:59:19;99808.34;;;2.68;57.30
10700;BME280;5401;41.986;21.452;2023-02-16T02:01:51;99780.69;;;2.51;57.75
10700;BME280;5401;41.986;21.452;2023-02-16T02:04:34;99795.78;;;2.60;57.52
10700;BME280;5401;41.986;21.452;2023-02-16T02:07:26;99804.28;;;2.64;57.46
10700;BME280;5401;41.986;21.452;2023-02-16T02:10:01;99817.50;;;2.64;57.78
10700;BME280;5401;41.986;21.452;2023-02-16T02:12:35;99799.97;;;2.43;57.53
10700;BME280;5401;41.986;21.452;2023-02-16T02:15:04;99805.63;;;2.38;57.88
10700;BME280;5401;41.986;21.452;2023-02-16T02:17:34;99820.72;;;2.47;58.42
10700;BME280;5401;41.986;21.452;2023-02-16T02:20:10;99807.75;;;2.44;58.33
10700;BME280;5401;41.986;21.452;2023-02-16T02:23:13;99816.06;;;2.40;57.94
10700;BME280;5401;41.986;21.452;2023-02-16T02:32:17;99810.59;;;2.52;58.10
10700;BME280;5401;41.986;21.452;2023-02-16T02:34:57;99805.09;;;2.44;57.88
10700;BME280;5401;41.986;21.452;2023-02-16T02:37:35;99805.50;;;2.40;58.14
10700;BME280;5401;41.986;21.452;2023-02-16T02:40:11;99805.75;;;2.37;57.57
10700;BME280;5401;41.986;21.452;2023-02-16T02:42:49;99799.63;;;2.36;58.45
10700;BME280;5401;41.986;21.452;2023-02-16T02:45:23;99801.22;;;2.28;58.24
10700;BME280;5401;41.986;21.452;2023-02-16T02:47:53;99801.69;;;2.33;57.97
10700;BME280;5401;41.986;21.452;2023-02-16T02:50:33;99793.63;;;2.34;58.38
10700;BME280;5401;41.986;21.452;2023-02-16T02:53:08;99805.63;;;2.38;57.88
10700;BME280;5401;41.986;21.452;2023-02-16T02:55:39;99810.94;;;2.27;58.39
10700;BME280;5401;41.986;21.452;2023-02-16T02:58:26;99798.13;;;2.23;58.70
10700;BME280;5401;41.986;21.452;2023-02-16T03:01:17;99812.00;;;2.36;58.39
10700;BME280;5401;41.986;21.452;2023-02-16T03:03:50;99788.28;;;2.25;58.43
10700;BME280;5401;41.986;21.452;2023-02-16T03:06:20;99801.22;;;2.28;57.99
10700;BME280;5401;41.986;21.452;2023-02-16T03:08:54;99815.09;;;2.10;58.09
10700;BME280;5401;41.986;21.452;2023-02-16T03:11:26;99818.38;;;1.91;59.01
10700;BME280;5401;41.986;21.452;2023-02-16T03:14:14;99819.03;;;1.84;58.88
10700;BME280;5401;41.986;21.452;2023-02-16T03:16:46;99812.78;;;1.85;59.35
10700;BME280;5401;41.986;21.452;2023-02-16T03:19:16;99804.97;;;1.94;58.74
10700;BME280;5401;41.986;21.452;2023-02-16T03:22:03;99783.50;;;1.88;58.65
10700;BME280;5401;41.986;21.452;2023-02-16T03:24:48;99812.94;;;2.14;59.10
10700;BME280;5401;41.986;21.452;2023-02-16T03:27:37;99814.09;;;2.21;58.85
10700;BME280;5401;41.986;21.452;2023-02-16T03:30:25;99812.44;;;2.20;58.71
10700;BME280;5401;41.986;21.452;2023-02-16T03:32:55;99815.09;;;2.10;58.45
10700;BME280;5401;41.986;21.452;2023-02-16T03:35:23;99810.53;;;2.12;58.35
10700;BME280;5401;41.986;21.452;2023-02-16T03:37:52;99800.56;;;2.15;58.85
10700;BME280;5401;41.986;21.452;2023-02-16T03:40:20;99805.47;;;2.19;58.25
10700;BME280;5401;41.986;21.452;2023-02-16T03:43:00;99813.88;;;2.24;58.31
10700;BME280;5401;41.986;21.452;2023-02-16T03:45:29;99809.84;;;2.30;58.43
10700;BME280;5401;41.986;21.452;2023-02-16T03:47:58;99802.25;;;2.36;58.51
10700;BME280;5401;41.986;21.452;2023-02-16T03:50:26;99796.97;;;2.36;58.64
10700;BME280;5401;41.986;21.452;2023-02-16T03:52:54;99792.91;;;2.32;58.15
10700;BME280;5401;41.986;21.452;2023-02-16T03:55:32;99806.84;;;2.34;58.52
10700;BME280;5401;41.986;21.452;2023-02-16T03:58:00;99794.72;;;2.32;57.79
10700;BME280;5401;41.986;21.452;2023-02-16T04:00:27;99781.56;;;2.21;58.00
10700;BME280;5401;41.986;21.452;2023-02-16T04:02:55;99770.19;;;2.10;58.49
10700;BME280;5401;41.986;21.452;2023-02-16T04:05:25;99769.09;;;2.12;58.69
10700;BME280;5401;41.986;21.452;2023-02-16T04:07:52;99805.56;;;2.29;58.15
10700;BME280;5401;41.986;21.452;2023-02-16T04:10:20;99797.50;;;2.30;58.70
10700;BME280;5401;41.986;21.452;2023-02-16T04:12:48;99793.06;;;2.31;58.42
10700;BME280;5401;41.986;21.452;2023-02-16T04:15:16;99797.16;;;2.24;58.40
10700;BME280;5401;41.986;21.452;2023-02-16T04:17:44;99775.09;;;2.14;58.48
10700;BME280;5401;41.986;21.452;2023-02-16T04:20:13;99796.81;;;2.28;58.43
10700;BME280;5401;41.986;21.452;2023-02-16T04:22:43;99803.75;;;2.29;58.00
10700;BME280;5401;41.986;21.452;2023-02-16T04:25:12;99802.91;;;2.29;58.63
10700;BME280;5401;41.986;21.452;2023-02-16T04:27:41;99801.22;;;2.28;57.99
10700;BME280;5401;41.986;21.452;2023-02-16T04:30:12;99792.84;;;2.23;58.52
10700;BME280;5401;41.986;21.452;2023-02-16T04:32:40;99803.41;;;2.23;57.95
10700;BME280;5401;41.986;21.452;2023-02-16T04:35:08;99808.59;;;2.24;57.84
10700;BME280;5401;41.986;21.452;2023-02-16T04:37:36;99799.59;;;2.16;58.00
10700;BME280;5401;41.986;21.452;2023-02-16T04:40:07;99807.50;;;2.16;57.80
10700;BME280;5401;41.986;21.452;2023-02-16T04:42:36;99802.75;;;2.10;58.33
10700;BME280;5401;41.986;21.452;2023-02-16T04:45:03;99784.66;;;1.95;58.06
10700;BME280;5401;41.986;21.452;2023-02-16T04:47:31;99805.19;;;2.02;58.32
10700;BME280;5401;41.986;21.452;2023-02-16T04:49:59;99809.38;;;2.05;58.17
10700;BME280;5401;41.986;21.452;2023-02-16T04:52:26;99819.09;;;2.04;58.21
10700;BME280;5401;41.986;21.452;2023-02-16T04:54:54;99819.22;;;2.03;58.43
10700;BME280;5401;41.986;21.452;2023-02-16T04:57:24;99812.00;;;2.05;58.75
10700;BME280;5401;41.986;21.452;2023-02-16T04:59:51;99798.97;;;1.92;57.84
10700;BME280;5401;41.986;21.452;2023-02-16T05:02:19;99816.94;;;1.98;58.38
10700;BME280;5401;41.986;21.452;2023-02-16T05:04:46;99822.00;;;1.90;58.12
10700;BME280;5401;41.986;21.452;2023-02-16T05:07:14;99815.66;;;1.82;58.34
10700;BME280;5401;41.986;21.452;2023-02-16T05:09:41;99824.16;;;1.85;58.35
10700;BME280;5401;41.986;21.452;2023-02-16T05:12:10;99824.31;;;1.84;58.66
10700;BME280;5401;41.986;21.452;2023-02-16T05:14:56;99823.09;;;1.88;58.42
10700;BME280;5401;41.986;21.452;2023-02-16T05:17:25;99820.31;;;1.89;58.89
10700;BME280;5401;41.986;21.452;2023-02-16T05:19:54;99834.22;;;1.91;58.34
10700;BME280;5401;41.986;21.452;2023-02-16T05:22:22;99835.44;;;1.87;58.51
10700;BME280;5401;41.986;21.452;2023-02-16T05:24:50;99834.59;;;1.87;58.50
10700;BME280;5401;41.986;21.452;2023-02-16T05:27:19;99830.41;;;1.84;58.68
10700;BME280;5401;41.986;21.452;2023-02-16T05:29:47;99832.22;;;1.84;58.30
10700;BME280;5401;41.986;21.452;2023-02-16T05:32:16;99827.56;;;1.77;58.06
10700;BME280;5401;41.986;21.452;2023-02-16T05:34:44;99826.56;;;1.77;58.30
10700;BME280;5401;41.986;21.452;2023-02-16T05:37:12;99827.06;;;1.72;58.42
10700;BME280;5401;41.986;21.452;2023-02-16T05:39:40;99836.66;;;1.83;58.48
10700;BME280;5401;41.986;21.452;2023-02-16T05:42:08;99832.06;;;1.96;58.17
10700;BME280;5401;41.986;21.452;2023-02-16T05:44:36;99838.00;;;2.20;58.96
10700;BME280;5401;41.986;21.452;2023-02-16T05:47:04;99840.69;;;2.40;57.94
10700;BME280;5401;41.986;21.452;2023-02-16T05:49:33;99837.56;;;2.66;57.84
10700;BME280;5401;41.986;21.452;2023-02-16T05:52:01;99853.69;;;3.04;58.18
10700;BME280;5401;41.986;21.452;2023-02-16T05:54:28;99846.50;;;3.35;57.74
10700;BME280;5401;41.986;21.452;2023-02-16T05:56:56;99834.53;;;3.70;56.93
10700;BME280;5401;41.986;21.452;2023-02-16T05:59:24;99850.53;;;4.08;56.26
10700;BME280;5401;41.986;21.452;2023-02-16T06:01:51;99855.75;;;4.37;56.42
10700;BME280;5401;41.986;21.452;2023-02-16T06:04:20;99857.16;;;4.69;55.73
10700;BME280;5401;41.986;21.452;2023-02-16T06:06:49;99860.34;;;4.92;55.31
10700;BME280;5401;41.986;21.452;2023-02-16T06:09:17;99841.34;;;5.05;54.55
10700;BME280;5401;41.986;21.452;2023-02-16T06:11:45;99858.69;;;5.55;54.61
10700;BME280;5401;41.986;21.452;2023-02-16T06:14:14;99859.97;;;5.87;54.27
10700;BME280;5401;41.986;21.452;2023-02-16T06:16:45;99859.69;;;6.16;54.34
10700;BME280;5401;41.986;21.452;2023-02-16T06:19:13;99855.75;;;6.38;53.46
10700;BME280;5401;41.986;21.452;2023-02-16T06:21:41;99860.88;;;6.66;53.34
10700;BME280;5401;41.986;21.452;2023-02-16T06:24:11;99870.38;;;6.85;52.72
10700;BME280;5401;41.986;21.452;2023-02-16T06:26:40;99868.78;;;7.10;52.61
10700;BME280;5401;41.986;21.452;2023-02-16T06:29:07;99867.69;;;7.20;52.46
10700;BME280;5401;41.986;21.452;2023-02-16T06:31:35;99873.75;;;7.30;52.38
10700;BME280;5401;41.986;21.452;2023-02-16T06:34:04;99877.00;;;7.66;52.02
10700;BME280;5401;41.986;21.452;2023-02-16T06:36:32;99850.47;;;7.90;51.70
10700;BME280;5401;41.986;21.452;2023-02-16T06:39:00;99846.63;;;8.25;51.14
10700;BME280;5401;41.986;21.452;2023-02-16T06:41:29;99874.09;;;8.59;50.77
10700;BME280;5401;41.986;21.452;2023-02-16T06:44:04;99870.78;;;8.73;50.47
10700;BME280;5401;41.986;21.452;2023-02-16T06:46:32;99862.13;;;8.79;50.73
10700;BME280;5401;41.986;21.452;2023-02-16T06:49:00;99865.97;;;9.08;50.93
10700;BME280;5401;41.986;21.452;2023-02-16T06:51:27;99866.13;;;9.38;49.31
10700;BME280;5401;41.986;21.452;2023-02-16T06:53:55;99863.94;;;9.49;50.21
10700;BME280;5401;41.986;21.452;2023-02-16T06:56:23;99866.56;;;9.65;49.13
10700;BME280;5401;41.986;21.452;2023-02-16T06:58:52;99864.03;;;9.95;49.37
10700;BME280;5401;41.986;21.452;2023-02-16T07:01:21;99853.53;;;10.24;49.16
10700;BME280;5401;41.986;21.452;2023-02-16T07:03:51;99853.34;;;10.63;48.42
10700;BME280;5401;41.986;21.452;2023-02-16T07:06:21;99849.00;;;10.84;47.98
10700;BME280;5401;41.986;21.452;2023-02-16T07:08:51;99826.06;;;10.82;47.92
10700;BME280;5401;41.986;21.452;2023-02-16T07:11:20;99860.50;;;11.15;48.14
10700;BME280;5401;41.986;21.452;2023-02-16T07:13:49;99839.31;;;11.05;48.37
10700;BME280;5401;41.986;21.452;2023-02-16T07:16:18;99847.44;;;11.12;48.40
10700;BME280;5401;41.986;21.452;2023-02-16T07:18:46;99813.44;;;11.12;48.39
10700;BME280;5401;41.986;21.452;2023-02-16T07:21:14;99839.16;;;11.43;48.19
10700;BME280;5401;41.986;21.452;2023-02-16T07:23:42;99845.47;;;11.50;47.80
10700;BME280;5401;41.986;21.452;2023-02-16T07:26:11;99828.06;;;11.24;47.80
10700;BME280;5401;41.986;21.452;2023-02-16T07:28:38;99857.63;;;11.16;48.40
10700;BME280;5401;41.986;21.452;2023-02-16T07:31:09;99843.19;;;11.03;48.29
10700;BME280;5401;41.986;21.452;2023-02-16T07:33:39;99850.50;;;10.65;49.00
10700;BME280;5401;41.986;21.452;2023-02-16T07:36:08;99854.03;;;10.57;49.00
10700;BME280;5401;41.986;21.452;2023-02-16T07:38:37;99860.97;;;10.44;48.88
10700;BME280;5401;41.986;21.452;2023-02-16T07:41:07;99842.25;;;10.36;49.59
10700;BME280;5401;41.986;21.452;2023-02-16T07:43:35;99860.00;;;10.37;49.63
10700;BME280;5401;41.986;21.452;2023-02-16T07:46:04;99858.53;;;10.34;49.17
10700;BME280;5401;41.986;21.452;2023-02-16T07:48:32;99855.56;;;10.22;49.52
10700;BME280;5401;41.986;21.452;2023-02-16T07:51:01;99854.97;;;10.04;49.86
10700;BME280;5401;41.986;21.452;2023-02-16T07:53:29;99835.34;;;9.65;49.34
10700;BME280;5401;41.986;21.452;2023-02-16T07:55:57;99844.03;;;9.67;49.89
10700;BME280;5401;41.986;21.452;2023-02-16T07:58:24;99823.88;;;9.33;49.88
10700;BME280;5401;41.986;21.452;2023-02-16T08:00:56;99853.13;;;9.19;50.05
10700;BME280;5401;41.986;21.452;2023-02-16T08:03:24;99828.91;;;8.97;49.84
10700;BME280;5401;41.986;21.452;2023-02-16T08:05:52;99871.47;;;9.22;50.08
10700;BME280;5401;41.986;21.452;2023-02-16T08:08:21;99868.81;;;9.22;50.76
10700;BME280;5401;41.986;21.452;2023-02-16T08:10:49;99865.81;;;9.17;50.50
10700;BME280;5401;41.986;21.452;2023-02-16T08:13:17;99860.13;;;9.04;50.10
10700;BME280;5401;41.986;21.452;2023-02-16T08:15:45;99864.47;;;9.13;50.22
10700;BME280;5401;41.986;21.452;2023-02-16T08:18:13;99860.13;;;9.36;50.06
10700;BME280;5401;41.986;21.452;2023-02-16T08:20:41;99869.63;;;9.46;50.01
10700;BME280;5401;41.986;21.452;2023-02-16T08:23:10;99851.88;;;9.53;50.64
10700;BME280;5401;41.986;21.452;2023-02-16T08:25:39;99851.72;;;9.55;50.07
10700;BME280;5401;41.986;21.452;2023-02-16T08:28:07;99837.91;;;9.43;50.46
10700;BME280;5401;41.986;21.452;2023-02-16T08:30:35;99860.13;;;9.44;50.71
10700;BME280;5401;41.986;21.452;2023-02-16T08:33:04;99823.53;;;9.21;50.25
10700;BME280;5401;41.986;21.452;2023-02-16T08:35:36;99841.88;;;9.47;50.70
10700;BME280;5401;41.986;21.452;2023-02-16T08:38:05;99843.41;;;9.42;50.57
10700;BME280;5401;41.986;21.452;2023-02-16T08:40:33;99855.09;;;9.33;50.74
10700;BME280;5401;41.986;21.452;2023-02-16T08:43:04;99829.41;;;9.24;50.74
10700;BME280;5401;41.986;21.452;2023-02-16T08:45:32;99850.09;;;9.46;50.44
10700;BME280;5401;41.986;21.452;2023-02-16T08:48:00;99829.66;;;9.60;49.76
10700;BME280;5401;41.986;21.452;2023-02-16T08:50:28;99840.97;;;9.94;50.03
10700;BME280;5401;41.986;21.452;2023-02-16T08:52:55;99834.47;;;10.27;50.28
10700;BME280;5401;41.986;21.452;2023-02-16T08:55:24;99794.81;;;10.30;49.90
10700;BME280;5401;41.986;21.452;2023-02-16T08:57:52;99836.03;;;10.73;49.56
10700;BME280;5401;41.986;21.452;2023-02-16T09:00:22;99822.25;;;10.76;49.01
10700;BME280;5401;41.986;21.452;2023-02-16T09:03:03;99828.59;;;10.83;48.97
10700;BME280;5401;41.986;21.452;2023-02-16T09:05:32;99816.44;;;10.73;49.06
10700;BME280;5401;41.986;21.452;2023-02-16T09:08:01;99794.09;;;10.58;49.21
10700;BME280;5401;41.986;21.452;2023-02-16T09:10:30;99828.09;;;10.80;48.94
10700;BME280;5401;41.986;21.452;2023-02-16T09:12:58;99825.03;;;10.91;49.11
10700;BME280;5401;41.986;21.452;2023-02-16T09:15:27;99815.13;;;10.91;48.69
10700;BME280;5401;41.986;21.452;2023-02-16T09:17:55;99826.13;;;11.18;48.73
10700;BME280;5401;41.986;21.452;2023-02-16T09:20:23;99830.47;;;11.19;48.47
10700;BME280;5401;41.986;21.452;2023-02-16T09:22:52;99821.25;;;11.36;48.70
10700;BME280;5401;41.986;21.452;2023-02-16T09:25:20;99827.25;;;11.60;48.34
10700;BME280;5401;41.986;21.452;2023-02-16T09:27:50;99819.78;;;11.84;48.31
10700;BME280;5401;41.986;21.452;2023-02-16T09:30:20;99808.78;;;11.94;47.48
10700;BME280;5401;41.986;21.452;2023-02-16T09:32:50;99794.78;;;11.84;47.51
10700;BME280;5401;41.986;21.452;2023-02-16T09:35:18;99815.03;;;12.15;48.11
10700;BME280;5401;41.986;21.452;2023-02-16T09:37:46;99813.06;;;12.23;47.76
10700;BME280;5401;41.986;21.452;2023-02-16T09:40:15;99777.41;;;11.80;47.03
10700;BME280;5401;41.986;21.452;2023-02-16T09:42:52;99789.59;;;11.82;47.38
10700;BME280;5401;41.986;21.452;2023-02-16T09:45:25;99782.03;;;11.86;47.20
10700;BME280;5401;41.986;21.452;2023-02-16T09:47:56;99801.50;;;12.23;47.44
10700;BME280;5401;41.986;21.452;2023-02-16T09:50:26;99788.03;;;12.37;47.69
10700;BME280;5401;41.986;21.452;2023-02-16T09:52:57;99788.69;;;12.39;47.53
10700;BME280;5401;41.986;21.452;2023-02-16T09:55:33;99794.53;;;12.63;46.63
10700;BME280;5401;41.986;21.452;2023-02-16T09:58:13;99791.69;;;12.85;46.53
10700;BME280;5401;41.986;21.452;2023-02-16T10:00:56;99786.19;;;12.93;47.23
10700;BME280;5401;41.986;21.452;2023-02-16T10:03:39;99798.56;;;12.74;46.25
10700;BME280;5401;41.986;21.452;2023-02-16T10:06:26;99763.69;;;12.39;46.94
10700;BME280;5401;41.986;21.452;2023-02-16T10:08:58;99792.50;;;12.65;47.25
10700;BME280;5401;41.986;21.452;2023-02-16T10:11:35;99777.91;;;12.74;46.93
10700;BME280;5401;41.986;21.452;2023-02-16T10:14:16;99768.47;;;12.78;46.24
10700;BME280;5401;41.986;21.452;2023-02-16T10:16:54;99779.13;;;12.92;46.33
10700;BME280;5401;41.986;21.452;2023-02-16T10:19:28;99759.63;;;12.84;46.72
10700;BME280;5401;41.986;21.452;2023-02-16T10:22:02;99756.34;;;12.88;46.67
10700;BME280;5401;41.986;21.452;2023-02-16T10:24:41;99748.44;;;13.01;46.05
10700;BME280;5401;41.986;21.452;2023-02-16T10:27:14;99768.47;;;13.26;46.42
10700;BME280;5401;41.986;21.452;2023-02-16T10:29:42;99731.25;;;13.23;46.10
10700;BME280;5401;41.986;21.452;2023-02-16T10:32:17;99763.25;;;13.45;45.27
10700;BME280;5401;41.986;21.452;2023-02-16T10:34:58;99726.72;;;13.30;44.83
10700;BME280;5401;41.986;21.452;2023-02-16T10:37:41;99733.81;;;13.37;44.77
10700;BME280;5401;41.986;21.452;2023-02-16T10:40:27;99722.59;;;13.34;45.46
10700;BME280;5401;41.986;21.452;2023-02-16T10:43:02;99726.31;;;13.33;45.16
10700;BME280;5401;41.986;21.452;2023-02-16T10:45:36;99736.44;;;13.31;46.04
10700;BME280;5401;41.986;21.452;2023-02-16T10:48:10;99695.94;;;13.05;44.81
10700;BME280;5401;41.986;21.452;2023-02-16T10:50:42;99724.00;;;13.23;44.90
10700;BME280;5401;41.986;21.452;2023-02-16T10:53:17;99719.13;;;13.40;45.03
10700;BME280;5401;41.986;21.452;2023-02-16T10:55:47;99718.25;;;13.33;44.61
10700;BME280;5401;41.986;21.452;2023-02-16T10:58:19;99695.25;;;13.30;45.26
10700;BME280;5401;41.986;21.452;2023-02-16T11:00:53;99675.06;;;13.47;45.28
10700;BME280;5401;41.986;21.452;2023-02-16T11:03:29;99706.91;;;13.77;44.39
10700;BME280;5401;41.986;21.452;2023-02-16T11:06:13;99689.13;;;13.83;45.22
10700;BME280;5401;41.986;21.452;2023-02-16T11:08:50;99679.66;;;13.99;44.64
10700;BME280;5401;41.986;21.452;2023-02-16T11:11:19;99690.13;;;14.22;43.91
10700;BME280;5401;41.986;21.452;2023-02-16T11:13:49;99682.66;;;14.17;44.03
10700;BME280;5401;41.986;21.452;2023-02-16T11:16:25;99654.91;;;14.10;44.61
10700;BME280;5401;41.986;21.452;2023-02-16T11:18:57;99660.09;;;14.18;43.88
10700;BME280;5401;41.986;21.452;2023-02-16T11:21:47;99671.91;;;14.24;43.98
10700;BME280;5401;41.986;21.452;2023-02-16T11:24:24;99652.84;;;14.19;43.61
10700;BME280;5401;41.986;21.452;2023-02-16T11:26:59;99634.22;;;13.77;44.15
10700;BME280;5401;41.986;21.452;2023-02-16T11:29:31;99634.22;;;13.71;43.57
10700;BME280;5401;41.986;21.452;2023-02-16T11:32:04;99658.06;;;13.74;43.79
10700;BME280;5401;41.986;21.452;2023-02-16T11:34:36;99645.59;;;13.73;44.74
10700;BME280;5401;41.986;21.452;2023-02-16T11:37:13;99651.47;;;13.89;44.08
10700;BME280;5401;41.986;21.452;2023-02-16T11:39:48;99650.00;;;13.87;44.20
10700;BME280;5401;41.986;21.452;2023-02-16T11:42:22;99650.22;;;13.91;44.47
10700;BME280;5401;41.986;21.452;2023-02-16T11:44:54;99614.19;;;13.80;43.63
10700;BME280;5401;41.986;21.452;2023-02-16T11:47:26;99605.31;;;13.92;44.03
10700;BME280;5401;41.986;21.452;2023-02-16T11:50:19;99605.81;;;14.21;43.27
10700;BME280;5401;41.986;21.452;2023-02-16T11:52:52;99619.31;;;14.47;43.55
10700;BME280;5401;41.986;21.452;2023-02-16T11:55:25;99594.22;;;14.33;43.68
10700;BME280;5401;41.986;21.452;2023-02-16T11:58:14;99604.53;;;14.17;43.52
10700;BME280;5401;41.986;21.452;2023-02-16T12:00:51;99612.00;;;14.22;43.02
10700;BME280;5401;41.986;21.452;2023-02-16T12:03:50;99598.34;;;14.23;43.75
10700;BME280;5401;41.986;21.452;2023-02-16T12:06:30;99577.63;;;14.11;43.76
10700;BME280;5401;41.986;21.452;2023-02-16T12:09:16;99584.88;;;14.23;43.17
10700;BME280;5401;41.986;21.452;2023-02-16T12:11:55;99560.00;;;14.27;43.13
10700;BME280;5401;41.986;21.452;2023-02-16T12:14:39;99586.97;;;14.60;42.97
10700;BME280;5401;41.986;21.452;2023-02-16T12:17:20;99559.78;;;14.42;42.59
10700;BME280;5401;41.986;21.452;2023-02-16T12:19:59;99570.81;;;14.47;42.60
10700;BME280;5401;41.986;21.452;2023-02-16T12:22:41;99540.13;;;14.41;43.04
10700;BME280;5401;41.986;21.452;2023-02-16T12:25:26;99547.38;;;14.47;42.78
10700;BME280;5401;41.986;21.452;2023-02-16T12:28:05;99570.16;;;14.51;42.50
10700;BME280;5401;41.986;21.452;2023-02-16T12:30:56;99544.06;;;14.26;42.64
10700;BME280;5401;41.986;21.452;2023-02-16T12:33:37;99561.03;;;14.39;42.48
10700;BME280;5401;41.986;21.452;2023-02-16T12:36:28;99540.53;;;14.45;42.55
10700;BME280;5401;41.986;21.452;2023-02-16T12:39:08;99516.69;;;14.42;42.01
10700;BME280;5401;41.986;21.452;2023-02-16T12:41:50;99540.94;;;14.61;42.20
10700;BME280;5401;41.986;21.452;2023-02-16T12:44:26;99513.56;;;14.51;41.99
10700;BME280;5401;41.986;21.452;2023-02-16T12:47:02;99527.84;;;14.77;42.50
10700;BME280;5401;41.986;21.452;2023-02-16T12:49:39;99514.16;;;14.79;41.55
10700;BME280;5401;41.986;21.452;2023-02-16T12:52:16;99487.03;;;14.42;41.93
10700;BME280;5401;41.986;21.452;2023-02-16T12:54:52;99519.38;;;14.61;41.72
10700;BME280;5401;41.986;21.452;2023-02-16T12:57:25;99491.41;;;14.49;42.19
10700;BME280;5401;41.986;21.452;2023-02-16T13:00:01;99494.31;;;14.41;42.26
10700;BME280;5401;41.986;21.452;2023-02-16T13:02:39;99505.28;;;14.40;42.29
10700;BME280;5401;41.986;21.452;2023-02-16T13:05:15;99497.00;;;14.41;42.28
10700;BME280;5401;41.986;21.452;2023-02-16T13:07:50;99515.84;;;14.48;41.55
10700;BME280;5401;41.986;21.452;2023-02-16T13:10:22;99518.13;;;14.38;41.59
10700;BME280;5401;41.986;21.452;2023-02-16T13:12:59;99481.88;;;14.27;42.15
10700;BME280;5401;41.986;21.452;2023-02-16T13:15:33;99502.38;;;14.48;41.80
10700;BME280;5401;41.986;21.452;2023-02-16T13:18:08;99492.03;;;14.38;41.37
10700;BME280;5401;41.986;21.452;2023-02-16T13:20:45;99475.66;;;14.33;41.35
10700;BME280;5401;41.986;21.452;2023-02-16T13:23:38;99479.16;;;14.53;41.54
10700;BME280;5401;41.986;21.452;2023-02-16T13:26:34;99482.66;;;14.73;41.61
10700;BME280;5401;41.986;21.452;2023-02-16T13:29:42;99484.66;;;14.90;41.12
10700;BME280;5401;41.986;21.452;2023-02-16T13:32:31;99460.25;;;14.72;40.85
10700;BME280;5401;41.986;21.452;2023-02-16T13:35:28;99476.88;;;14.57;41.37
10700;BME280;5401;41.986;21.452;2023-02-16T13:38:13;99457.88;;;14.26;41.54
10700;BME280;5401;41.986;21.452;2023-02-16T13:41:17;99473.38;;;14.37;41.27
10700;BME280;5401;41.986;21.452;2023-02-16T13:43:55;99465.09;;;14.38;41.71